Time;durP1;ratioP1;P1;durP2;ratioP2;P2;SDS_P1;SDS_P2;PMS_P1;PMS_P2;Temp;Humidity;BMP_temperature;BMP_pressure;BME280_temperature;BME280_humidity;BME280_pressure;Samples;Min_cycle;Max_cycle;Signal;HPM_P1;HPM_P2
2021/06/14 00:01:44;;;;;;;5.72;3.38;;;20.50;64.80;;;;;;5017437;28;20037;-84
2021/06/14 00:04:09;;;;;;;7.22;3.58;;;20.50;65.30;;;;;;5036703;28;20422;-84
2021/06/14 00:06:35;;;;;;;7.72;3.90;;;20.50;66.10;;;;;;5031007;28;20044;-84
2021/06/14 00:09:02;;;;;;;8.70;3.80;;;20.40;65.30;;;;;;5029780;28;20390;-84
2021/06/14 00:11:28;;;;;;;8.10;3.58;;;20.40;65.40;;;;;;5018143;28;20029;-84
2021/06/14 00:13:54;;;;;;;6.88;3.33;;;20.30;65.50;;;;;;5021296;28;20032;-84
2021/06/14 00:16:20;;;;;;;7.65;4.03;;;20.30;65.50;;;;;;5018093;28;20445;-84
2021/06/14 00:18:46;;;;;;;6.72;3.38;;;20.30;65.60;;;;;;5050952;28;20028;-84
2021/06/14 00:21:13;;;;;;;7.22;3.55;;;20.20;65.50;;;;;;5064733;28;20508;-84
2021/06/14 00:23:40;;;;;;;6.72;3.42;;;20.20;65.70;;;;;;5057271;28;20091;-84
2021/06/14 00:26:10;;;;;;;5.90;3.53;;;20.20;65.90;;;;;;5038499;28;20056;-84
2021/06/14 00:28:37;;;;;;;7.55;3.90;;;20.20;66.10;;;;;;5046569;28;20024;-84
2021/06/14 00:31:03;;;;;;;6.70;3.45;;;20.10;66.50;;;;;;5003608;28;20049;-84
2021/06/14 00:33:29;;;;;;;7.03;3.85;;;20.10;66.70;;;;;;5034032;28;20055;-84
2021/06/14 00:35:54;;;;;;;5.93;3.60;;;20.10;66.60;;;;;;5030783;28;20053;-84
2021/06/14 00:38:20;;;;;;;6.97;4.15;;;20.00;66.60;;;;;;5014358;28;20053;-84
2021/06/14 00:40:46;;;;;;;7.55;3.70;;;20.00;66.70;;;;;;4997818;28;20028;-84
2021/06/14 00:43:13;;;;;;;7.35;3.50;;;19.90;67.20;;;;;;5030904;28;20368;-84
2021/06/14 00:45:42;;;;;;;7.07;3.83;;;20.00;67.70;;;;;;5014234;28;20036;-84
2021/06/14 00:48:09;;;;;;;7.70;4.10;;;19.90;68.00;;;;;;5030542;28;20025;-84
2021/06/14 00:50:43;;;;;;;8.93;3.97;;;19.90;68.20;;;;;;5044496;28;20482;-84
2021/06/14 00:53:13;;;;;;;8.25;4.25;;;19.90;68.10;;;;;;5030527;28;20013;-84
2021/06/14 00:55:39;;;;;;;6.97;3.73;;;19.80;67.90;;;;;;5030579;28;20025;-84
2021/06/14 00:58:05;;;;;;;5.40;3.30;;;19.80;68.10;;;;;;5030509;28;20364;-84
2021/06/14 01:00:31;;;;;;;6.43;3.45;;;19.80;68.60;;;;;;5030918;28;20037;-84
2021/06/14 01:02:57;;;;;;;6.97;3.97;;;19.70;68.70;;;;;;5013982;28;20018;-84
2021/06/14 01:05:25;;;;;;;8.15;4.15;;;19.70;69.00;;;;;;5014451;28;20029;-84
2021/06/14 01:07:57;;;;;;;6.00;3.53;;;19.70;68.90;;;;;;5016190;28;20048;-84
2021/06/14 01:10:22;;;;;;;7.43;4.10;;;19.70;68.80;;;;;;5008620;28;20398;-87
2021/06/14 01:13:07;;;;;;;7.82;4.22;;;19.60;68.70;;;;;;5015592;28;20022;-87
2021/06/14 01:15:42;;;;;;;7.57;4.30;;;19.60;68.80;;;;;;5054881;28;20029;-87
2021/06/14 01:18:11;;;;;;;7.15;4.05;;;19.60;68.50;;;;;;5038597;28;20095;-87
2021/06/14 01:20:45;;;;;;;7.80;4.15;;;19.50;68.70;;;;;;5035748;28;20061;-87
2021/06/14 01:23:17;;;;;;;6.07;3.97;;;19.50;69.20;;;;;;5034589;28;20104;-87
2021/06/14 01:26:06;;;;;;;9.30;4.32;;;19.40;69.10;;;;;;5042253;28;20626;-87
2021/06/14 01:28:34;;;;;;;7.35;3.88;;;19.40;69.10;;;;;;5047212;23;20086;-87
2021/06/14 01:31:02;;;;;;;7.65;4.05;;;19.40;69.20;;;;;;4994621;28;20050;-87
2021/06/14 01:33:29;;;;;;;7.65;4.32;;;19.30;69.00;;;;;;4978635;28;20327;-87
2021/06/14 01:36:18;;;;;;;8.63;4.30;;;19.30;69.40;;;;;;4994757;28;20022;-88
2021/06/14 01:38:46;;;;;;;7.82;4.20;;;19.30;69.60;;;;;;4999834;28;20061;-88
2021/06/14 01:41:13;;;;;;;8.20;5.03;;;19.20;69.70;;;;;;4994609;28;20427;-87
2021/06/14 01:43:41;;;;;;;8.15;4.90;;;19.20;69.70;;;;;;4978555;28;20090;-87
2021/06/14 01:46:14;;;;;;;8.13;4.75;;;19.20;69.90;;;;;;4978279;28;20467;-87
2021/06/14 01:48:42;;;;;;;11.05;5.40;;;19.20;69.90;;;;;;4994467;28;20026;-87
2021/06/14 01:51:10;;;;;;;9.35;4.88;;;19.10;69.70;;;;;;4994485;28;20112;-87
2021/06/14 01:53:37;;;;;;;8.60;4.50;;;19.10;69.80;;;;;;4994203;28;20476;-87
2021/06/14 01:59:33;;;;;;;8.60;5.10;;;19.00;70.30;;;;;;5003533;28;20041;-87
2021/06/14 02:02:00;;;;;;;8.38;5.20;;;19.00;70.40;;;;;;4994279;28;20026;-87
2021/06/14 02:04:26;;;;;;;8.55;5.15;;;19.00;70.90;;;;;;4978035;28;20034;-87
2021/06/14 02:06:54;;;;;;;7.93;5.15;;;18.90;70.70;;;;;;4978118;28;20026;-87
2021/06/14 02:09:22;;;;;;;9.07;5.00;;;18.90;70.80;;;;;;4994283;28;20444;-88
2021/06/14 02:11:56;;;;;;;8.00;5.20;;;18.90;70.70;;;;;;4994253;28;20022;-88
2021/06/14 02:14:25;;;;;;;8.75;5.35;;;18.90;71.00;;;;;;4994325;28;20065;-87
2021/06/14 02:16:53;;;;;;;7.88;4.82;;;18.80;71.20;;;;;;4994109;28;20402;-87
2021/06/14 02:19:19;;;;;;;7.97;4.80;;;18.80;71.60;;;;;;4994272;28;20514;-87
2021/06/14 02:21:46;;;;;;;9.68;4.85;;;18.80;71.40;;;;;;4994216;28;20072;-87
2021/06/14 02:24:13;;;;;;;10.20;5.07;;;18.70;71.60;;;;;;4974317;28;20023;-87
2021/06/14 02:26:41;;;;;;;9.48;5.70;;;18.70;71.70;;;;;;4993255;28;20049;-88
2021/06/14 02:29:07;;;;;;;9.07;5.22;;;18.70;71.60;;;;;;4993970;28;20018;-87
2021/06/14 02:31:34;;;;;;;9.80;5.50;;;18.70;72.10;;;;;;4977935;28;20077;-87
2021/06/14 02:34:01;;;;;;;9.70;5.88;;;18.60;72.00;;;;;;5011308;28;20018;-88
2021/06/14 02:36:27;;;;;;;10.02;5.50;;;18.60;72.20;;;;;;4977982;28;20101;-87
2021/06/14 02:38:53;;;;;;;10.40;4.93;;;18.60;72.30;;;;;;4993583;28;20029;-87
2021/06/14 02:41:20;;;;;;;7.93;5.13;;;18.50;72.30;;;;;;4974344;28;20033;-88
2021/06/14 02:43:46;;;;;;;9.15;5.13;;;18.50;72.60;;;;;;4961282;28;20061;-87
2021/06/14 02:46:13;;;;;;;8.18;5.50;;;18.40;72.80;;;;;;4977408;28;20510;-87
2021/06/14 02:48:41;;;;;;;8.18;5.00;;;18.40;72.80;;;;;;5011277;28;20588;-87
2021/06/14 02:51:07;;;;;;;8.73;5.35;;;18.40;73.00;;;;;;4993587;28;20082;-87
2021/06/14 02:53:35;;;;;;;8.93;5.60;;;18.40;73.10;;;;;;4993823;28;20048;-87
2021/06/14 02:56:14;;;;;;;9.70;5.53;;;18.40;73.20;;;;;;4977427;28;20164;-87
2021/06/14 02:58:44;;;;;;;9.65;5.88;;;18.30;74.10;;;;;;4993733;28;20033;-87
2021/06/14 03:01:11;;;;;;;10.65;5.40;;;18.30;73.20;;;;;;4993404;28;20536;-88
2021/06/14 03:03:40;;;;;;;11.10;5.53;;;18.20;73.20;;;;;;4977426;28;20030;-87
2021/06/14 03:06:08;;;;;;;10.65;5.50;;;18.20;73.30;;;;;;4993307;28;20025;-88
2021/06/14 03:08:36;;;;;;;10.52;5.68;;;18.20;73.50;;;;;;5010929;28;20022;-88
2021/06/14 03:11:02;;;;;;;9.70;5.65;;;18.20;73.60;;;;;;5011028;28;20018;-88
2021/06/14 03:13:29;;;;;;;8.93;5.28;;;18.20;73.70;;;;;;5010911;28;20025;-88
2021/06/14 03:15:55;;;;;;;9.60;5.65;;;18.10;73.90;;;;;;4993762;28;20054;-88
2021/06/14 03:18:23;;;;;;;9.50;5.60;;;18.10;73.80;;;;;;4977150;28;20022;-87
2021/06/14 03:20:53;;;;;;;10.13;6.03;;;18.00;74.00;;;;;;4993176;28;20029;-88
2021/06/14 03:23:18;;;;;;;10.63;6.13;;;18.00;74.10;;;;;;4976937;28;20036;-87
2021/06/14 03:25:44;;;;;;;11.70;6.15;;;18.00;74.20;;;;;;4976908;28;20022;-88
2021/06/14 03:28:12;;;;;;;10.35;6.32;;;18.00;74.60;;;;;;4976871;28;20129;-88
2021/06/14 03:30:40;;;;;;;8.85;5.80;;;18.00;74.80;;;;;;4973760;28;20544;-87
2021/06/14 03:33:08;;;;;;;9.73;6.07;;;17.90;75.10;;;;;;4973566;28;20475;-88
2021/06/14 03:35:35;;;;;;;12.77;6.18;;;17.90;75.20;;;;;;4989962;28;20055;-88
2021/06/14 03:38:01;;;;;;;10.75;5.85;;;17.90;75.20;;;;;;4973529;28;20023;-88
2021/06/14 03:40:27;;;;;;;11.70;6.32;;;17.90;75.50;;;;;;4989565;28;20026;-87
2021/06/14 03:42:59;;;;;;;10.35;6.13;;;17.90;75.60;;;;;;4970468;28;20545;-87
2021/06/14 03:45:26;;;;;;;7.82;5.68;;;17.90;75.80;;;;;;4989337;28;20086;-87
2021/06/14 03:48:01;;;;;;;10.23;6.05;;;17.90;75.90;;;;;;4989609;28;20365;-87
2021/06/14 03:50:27;;;;;;;9.95;6.00;;;17.80;76.00;;;;;;4989285;28;20526;-87
2021/06/14 03:52:53;;;;;;;9.00;5.93;;;17.80;76.00;;;;;;4990731;28;20102;-87
2021/06/14 03:55:20;;;;;;;11.55;6.50;;;17.80;76.10;;;;;;4989651;28;20101;-87
2021/06/14 03:57:46;;;;;;;10.18;6.05;;;17.80;76.40;;;;;;4973306;28;20030;-87
2021/06/14 04:00:13;;;;;;;10.90;6.20;;;17.80;76.50;;;;;;5074369;28;20038;-88
2021/06/14 04:02:55;;;;;;;11.38;6.60;;;17.80;76.60;;;;;;5057611;28;20533;-88
2021/06/14 04:05:21;;;;;;;10.88;6.18;;;17.80;76.90;;;;;;5040619;28;20426;-87
2021/06/14 04:07:46;;;;;;;11.00;6.68;;;17.80;76.80;;;;;;5057397;28;20079;-87
2021/06/14 04:10:12;;;;;;;12.63;6.43;;;17.80;76.90;;;;;;5043586;28;20117;-87
2021/06/14 04:12:38;;;;;;;11.18;6.82;;;17.80;77.50;;;;;;4973130;28;20034;-88
2021/06/14 04:15:05;;;;;;;10.68;6.90;;;17.70;77.00;;;;;;4988911;28;20033;-87
2021/06/14 04:17:32;;;;;;;10.25;6.45;;;17.70;77.00;;;;;;4989192;28;20025;-87
2021/06/14 04:19:58;;;;;;;10.63;6.50;;;17.70;77.00;;;;;;4989000;28;20030;-87
2021/06/14 04:22:24;;;;;;;10.82;6.82;;;17.70;77.20;;;;;;4972853;28;20406;-87
2021/06/14 04:24:50;;;;;;;11.40;6.78;;;17.70;77.30;;;;;;4990173;28;20038;-87
2021/06/14 04:27:17;;;;;;;9.85;5.68;;;17.70;77.20;;;;;;4988965;28;20034;-88
2021/06/14 04:29:43;;;;;;;12.25;5.95;;;17.70;77.40;;;;;;4972806;28;20054;-87
2021/06/14 04:32:09;;;;;;;10.40;6.10;;;17.70;77.50;;;;;;4988972;28;20034;-87
2021/06/14 04:34:34;;;;;;;10.02;6.00;;;17.70;78.40;;;;;;4972742;28;20049;-87
2021/06/14 04:37:00;;;;;;;10.57;6.07;;;17.70;77.80;;;;;;4972513;28;20423;-87
2021/06/14 04:39:26;;;;;;;10.63;6.30;;;17.70;78.00;;;;;;4972601;28;20042;-87
2021/06/14 04:41:51;;;;;;;9.18;6.30;;;17.70;78.10;;;;;;4989831;28;20497;-87
2021/06/14 04:44:17;;;;;;;10.23;6.57;;;17.70;78.30;;;;;;4972609;28;20038;-87
2021/06/14 04:46:43;;;;;;;13.05;6.50;;;17.70;78.40;;;;;;4972620;28;20121;-87
2021/06/14 04:49:09;;;;;;;9.80;6.43;;;17.70;78.60;;;;;;4974328;28;20030;-87
2021/06/14 04:51:34;;;;;;;8.65;5.88;;;17.80;78.70;;;;;;4960079;28;20046;-87
2021/06/14 04:54:00;;;;;;;10.15;6.85;;;17.80;78.80;;;;;;4976077;28;20083;-88
2021/06/14 04:56:26;;;;;;;12.18;6.63;;;17.80;78.90;;;;;;4975945;28;20578;-87
2021/06/14 04:58:51;;;;;;;11.15;6.80;;;17.80;78.90;;;;;;4993293;28;20065;-87
2021/06/14 05:01:17;;;;;;;10.02;6.63;;;17.80;78.30;;;;;;4975938;28;20109;-87
2021/06/14 05:03:43;;;;;;;11.57;6.90;;;17.80;78.70;;;;;;4975973;28;20079;-87
2021/06/14 05:06:08;;;;;;;10.85;6.30;;;17.80;78.40;;;;;;4975451;28;20041;-87
2021/06/14 05:08:34;;;;;;;9.70;5.90;;;17.90;78.50;;;;;;4975824;28;20037;-87
2021/06/14 05:11:01;;;;;;;10.07;6.00;;;17.90;78.00;;;;;;4972501;28;20079;-87
2021/06/14 05:13:27;;;;;;;9.93;6.65;;;17.90;77.70;;;;;;4990619;28;20138;-87
2021/06/14 05:15:52;;;;;;;9.57;6.40;;;17.90;77.50;;;;;;4975850;28;20142;-87
2021/06/14 05:18:18;;;;;;;9.60;5.15;;;17.90;77.00;;;;;;4991641;28;20021;-87
2021/06/14 05:20:44;;;;;;;9.98;5.97;;;17.90;76.80;;;;;;4991941;28;20034;-87
2021/06/14 05:23:09;;;;;;;9.45;5.95;;;17.90;76.40;;;;;;4991757;28;20383;-87
2021/06/14 05:25:36;;;;;;;9.25;5.75;;;18.00;76.40;;;;;;4991744;28;20030;-87
2021/06/14 05:28:03;;;;;;;9.45;5.55;;;18.00;76.60;;;;;;4979105;28;20037;-87
2021/06/14 05:30:29;;;;;;;8.95;5.50;;;18.00;76.40;;;;;;4970838;28;20138;-87
2021/06/14 05:36:16;;;;;;;9.30;5.22;;;18.10;76.60;;;;;;4986240;28;20075;-87
2021/06/14 05:38:42;;;;;;;9.98;5.60;;;18.10;76.30;;;;;;4991405;28;20022;-87
2021/06/14 05:41:07;;;;;;;9.48;5.53;;;18.20;76.40;;;;;;4975127;28;20133;-87
2021/06/14 05:43:33;;;;;;;6.95;4.90;;;18.20;76.10;;;;;;4991737;28;20026;-87
2021/06/14 05:45:59;;;;;;;8.25;4.55;;;18.20;76.00;;;;;;4992836;28;20391;-87
2021/06/14 05:48:24;;;;;;;9.85;5.40;;;18.20;75.90;;;;;;4991277;28;20030;-87
2021/06/14 05:50:50;;;;;;;10.57;5.68;;;18.30;75.90;;;;;;4975130;28;20041;-86
2021/06/14 05:53:16;;;;;;;8.35;5.20;;;18.30;76.10;;;;;;4991002;28;20014;-87
2021/06/14 05:55:42;;;;;;;9.40;5.80;;;18.30;76.30;;;;;;4991384;28;20380;-88
2021/06/14 05:58:08;;;;;;;9.60;5.20;;;18.40;76.40;;;;;;4991456;28;20034;-87
2021/06/14 06:00:34;;;;;;;11.93;6.00;;;18.40;76.00;;;;;;4974863;28;20383;-88
2021/06/14 06:03:00;;;;;;;9.00;5.57;;;18.40;75.60;;;;;;4975059;28;20030;-87
2021/06/14 06:05:26;;;;;;;11.45;5.65;;;18.50;75.60;;;;;;4990905;28;20046;-87
2021/06/14 06:11:14;;;;;;;12.30;4.80;;;18.60;75.80;;;;;;4990955;28;20395;-87
2021/06/14 06:13:40;;;;;;;10.85;4.30;;;18.60;75.60;;;;;;4974888;28;20027;-86
2021/06/14 06:16:09;;;;;;;7.30;4.25;;;18.70;75.40;;;;;;4958797;28;20029;-87
2021/06/14 06:18:34;;;;;;;8.23;4.50;;;18.70;75.00;;;;;;4975433;28;20113;-86
2021/06/14 06:21:00;;;;;;;7.05;3.78;;;18.80;74.40;;;;;;4976218;28;20854;-87
2021/06/14 06:23:26;;;;;;;7.97;4.35;;;18.80;74.40;;;;;;4993205;28;20042;-87
2021/06/14 06:25:52;;;;;;;7.28;3.75;;;18.90;74.00;;;;;;4974781;28;20019;-87
2021/06/14 06:28:18;;;;;;;6.45;3.55;;;19.00;74.20;;;;;;4990826;28;20383;-87
2021/06/14 06:30:44;;;;;;;8.38;4.25;;;19.00;74.20;;;;;;4990316;28;20142;-87
2021/06/14 06:33:09;;;;;;;6.03;3.40;;;19.10;74.00;;;;;;4958436;28;20045;-87
2021/06/14 06:35:36;;;;;;;7.72;3.88;;;19.20;74.20;;;;;;4974554;28;20050;-87
2021/06/14 06:38:03;;;;;;;6.53;3.60;;;19.20;74.80;;;;;;4990808;28;20026;-87
2021/06/14 06:40:29;;;;;;;6.93;3.25;;;19.30;73.80;;;;;;4990571;28;20088;-86
2021/06/14 06:42:56;;;;;;;6.47;3.60;;;19.40;73.70;;;;;;4974452;28;20031;-87
2021/06/14 06:45:24;;;;;;;7.93;3.67;;;19.40;73.70;;;;;;4990634;28;20061;-87
2021/06/14 06:47:50;;;;;;;7.47;3.80;;;19.50;73.80;;;;;;4974078;28;20467;-87
2021/06/14 06:50:16;;;;;;;6.22;3.72;;;19.50;73.20;;;;;;4990319;28;20031;-87
2021/06/14 06:52:41;;;;;;;6.15;3.85;;;19.70;73.00;;;;;;5058682;28;20084;-87
2021/06/14 06:55:10;;;;;;;7.57;3.70;;;19.70;72.30;;;;;;4974162;28;20053;-87
2021/06/14 06:57:37;;;;;;;6.78;3.67;;;19.70;71.70;;;;;;4990228;28;20038;-87
2021/06/14 07:00:12;;;;;;;8.00;3.88;;;19.80;71.60;;;;;;4990290;28;20026;-86
2021/06/14 07:02:37;;;;;;;7.78;3.67;;;19.90;71.60;;;;;;4990266;28;20487;-86
2021/06/14 07:05:04;;;;;;;6.72;3.50;;;20.00;71.60;;;;;;4958040;28;20064;-87
2021/06/14 07:07:29;;;;;;;6.75;3.50;;;20.10;71.80;;;;;;4990486;28;20061;-87
2021/06/14 07:10:17;;;;;;;7.95;3.50;;;20.20;71.10;;;;;;4973818;28;20068;-87
2021/06/14 07:12:43;;;;;;;7.03;3.50;;;20.30;71.00;;;;;;4989658;28;20520;-87
2021/06/14 07:15:11;;;;;;;5.53;3.10;;;20.30;70.70;;;;;;4990014;28;20121;-87
2021/06/14 07:17:39;;;;;;;6.75;3.50;;;20.40;71.00;;;;;;4974116;28;20095;-87
2021/06/14 07:20:07;;;;;;;6.18;3.28;;;20.60;70.60;;;;;;4990072;28;20113;-87
2021/06/14 07:22:33;;;;;;;7.72;3.78;;;20.60;70.10;;;;;;4957924;28;20037;-87
2021/06/14 07:24:58;;;;;;;6.43;3.67;;;20.70;70.30;;;;;;4989680;28;20030;-87
2021/06/14 07:27:24;;;;;;;8.20;3.88;;;20.80;69.60;;;;;;4970636;28;20035;-87
2021/06/14 07:29:50;;;;;;;8.48;3.47;;;20.90;69.40;;;;;;4959917;22;20104;-84
2021/06/14 07:32:15;;;;;;;6.10;3.55;;;21.00;69.50;;;;;;4951222;29;20039;-84
2021/06/14 07:34:41;;;;;;;7.63;3.70;;;21.10;69.00;;;;;;5034803;28;20542;-84
2021/06/14 07:37:22;;;;;;;6.80;3.30;;;21.20;68.50;;;;;;4950218;29;20030;-84
2021/06/14 07:39:47;;;;;;;;;;;21.30;68.20;;;;;;5034518;28;20042;-84
2021/06/14 07:42:13;;;;;;;7.13;3.58;;;21.40;67.20;;;;;;4952118;28;19910;-84
2021/06/14 07:44:39;;;;;;;7.38;3.38;;;21.50;67.30;;;;;;4950827;28;20027;-84
2021/06/14 07:47:05;;;;;;;8.98;3.67;;;21.60;67.30;;;;;;4966667;28;20106;-84
2021/06/14 07:49:31;;;;;;;7.63;3.90;;;21.70;67.20;;;;;;4953879;28;20138;-84
2021/06/14 07:51:57;;;;;;;7.18;3.60;;;21.80;66.10;;;;;;4939981;29;20019;-84
2021/06/14 07:54:23;;;;;;;8.77;4.00;;;21.90;67.50;;;;;;4934729;28;20083;-84
2021/06/14 07:56:51;;;;;;;9.88;3.90;;;22.00;66.50;;;;;;4948058;28;20031;-84
2021/06/14 07:59:17;;;;;;;7.40;3.85;;;22.10;66.60;;;;;;5034406;28;20035;-84
2021/06/14 08:01:42;;;;;;;7.30;3.72;;;22.20;66.10;;;;;;4950360;29;20034;-84
2021/06/14 08:04:08;;;;;;;7.63;4.05;;;22.40;66.20;;;;;;4941639;28;20028;-87
2021/06/14 08:06:34;;;;;;;10.38;4.00;;;22.40;66.70;;;;;;4930072;29;20467;-87
2021/06/14 08:09:04;;;;;;;9.07;3.80;;;22.50;66.00;;;;;;5027316;28;20035;-86
2021/06/14 08:11:30;;;;;;;8.47;3.87;;;22.60;63.40;;;;;;4929740;28;20430;-87
2021/06/14 08:13:57;;;;;;;5.50;2.95;;;22.80;64.80;;;;;;5034555;28;20274;-87
2021/06/14 08:16:23;;;;;;;6.85;3.95;;;22.90;64.60;;;;;;4939362;29;20020;-87
2021/06/14 08:19:13;;;;;;;6.07;3.72;;;22.90;64.30;;;;;;4948002;29;20027;-86
2021/06/14 08:26:49;;;;;;;7.18;3.58;;;23.20;62.20;;;;;;4951902;29;20050;-86
2021/06/14 08:29:30;;;;;;;6.55;3.30;;;23.40;61.20;;;;;;4949973;28;20138;-86
2021/06/14 08:31:56;;;;;;;4.53;2.92;;;23.40;62.00;;;;;;4940431;29;20023;-86
2021/06/14 08:34:22;;;;;;;7.82;3.95;;;23.50;61.60;;;;;;4949810;28;20512;-87
2021/06/14 08:36:47;;;;;;;6.63;3.85;;;23.70;61.50;;;;;;4934540;28;20031;-86
2021/06/14 08:39:13;;;;;;;6.95;3.65;;;23.70;60.80;;;;;;4952713;28;20038;-86
2021/06/14 08:41:42;;;;;;;9.00;3.53;;;23.80;60.90;;;;;;4941125;29;20384;-87
2021/06/14 08:44:09;;;;;;;6.97;3.30;;;23.90;61.00;;;;;;4946265;29;20023;-87
2021/06/14 08:46:35;;;;;;;7.60;3.60;;;24.00;61.20;;;;;;4987999;28;20033;-87
2021/06/14 08:49:01;;;;;;;8.18;3.58;;;24.20;61.20;;;;;;4978324;28;20063;-87
2021/06/14 08:51:28;;;;;;;8.23;4.30;;;24.30;60.70;;;;;;4949940;29;20054;-86
2021/06/14 08:53:53;;;;;;;7.93;4.28;;;24.40;60.00;;;;;;4953582;28;20114;-87
2021/06/14 08:56:21;;;;;;;7.07;3.50;;;24.40;59.90;;;;;;4949907;28;20114;-86
2021/06/14 08:58:51;;;;;;;6.65;3.40;;;24.50;59.90;;;;;;4934060;28;20039;-86
2021/06/14 09:01:17;;;;;;;6.85;3.40;;;24.60;56.40;;;;;;4949900;28;20084;-87
2021/06/14 09:03:43;;;;;;;5.10;3.00;;;24.70;53.00;;;;;;4950094;28;20050;-87
2021/06/14 09:06:27;;;;;;;7.60;3.42;;;24.70;53.40;;;;;;4950637;28;20366;-87
2021/06/14 09:08:58;;;;;;;7.95;3.30;;;24.80;49.70;;;;;;4949212;28;20031;-87
2021/06/14 09:11:25;;;;;;;6.57;3.20;;;24.90;53.00;;;;;;4965902;28;20051;-86
2021/06/14 09:13:51;;;;;;;6.50;3.58;;;24.90;53.30;;;;;;4951173;28;20023;-87
2021/06/14 09:16:17;;;;;;;6.63;3.40;;;25.10;53.20;;;;;;4942912;28;20065;-87
2021/06/14 09:18:44;;;;;;;7.30;3.90;;;25.10;53.00;;;;;;4949788;28;20038;-86
2021/06/14 09:21:20;;;;;;;8.95;4.13;;;25.20;51.50;;;;;;4955603;28;20030;-86
2021/06/14 09:23:52;;;;;;;8.60;4.20;;;25.30;51.40;;;;;;4949576;29;20056;-87
2021/06/14 09:29:40;;;;;;;8.45;4.43;;;25.40;52.60;;;;;;4959412;28;20108;-87
2021/06/14 09:32:06;;;;;;;8.82;4.45;;;25.50;50.90;;;;;;4952748;28;20027;-86
2021/06/14 09:34:34;;;;;;;9.52;4.38;;;25.60;51.20;;;;;;4938218;28;20453;-87
2021/06/14 09:37:03;;;;;;;7.50;3.90;;;25.60;51.10;;;;;;4992603;28;20398;-87
2021/06/14 09:39:41;;;;;;;10.30;5.03;;;25.70;51.10;;;;;;4972340;28;20445;-87
2021/06/14 09:42:18;;;;;;;8.00;4.57;;;25.80;50.70;;;;;;4960891;28;20091;-87
2021/06/14 09:44:45;;;;;;;8.57;4.65;;;25.90;48.00;;;;;;4972060;28;20039;-87
2021/06/14 09:47:15;;;;;;;6.88;3.90;;;25.90;49.00;;;;;;4952875;28;20477;-88
2021/06/14 09:49:41;;;;;;;7.65;4.65;;;26.00;49.70;;;;;;4965495;28;20391;-87
2021/06/14 09:52:20;;;;;;;6.63;4.03;;;26.10;50.40;;;;;;4973135;28;20085;-87
2021/06/14 09:54:45;;;;;;;12.15;5.65;;;26.10;50.00;;;;;;4972021;28;20031;-87
2021/06/14 09:57:11;;;;;;;10.00;5.35;;;26.20;49.30;;;;;;4955888;28;20403;-87
2021/06/14 09:59:40;;;;;;;9.77;6.30;;;26.30;49.60;;;;;;4971938;28;20041;-87
2021/06/14 10:02:06;;;;;;;8.32;5.03;;;26.30;48.40;;;;;;4940724;28;20027;-88
2021/06/14 10:04:32;;;;;;;9.77;5.25;;;26.30;49.40;;;;;;4961628;28;20632;-87
2021/06/14 10:07:09;;;;;;;8.35;4.70;;;26.40;49.60;;;;;;4977544;28;20031;-87
2021/06/14 10:09:43;;;;;;;8.98;4.38;;;26.40;50.20;;;;;;4973358;28;20042;-88
2021/06/14 10:12:28;;;;;;;7.60;4.07;;;26.50;50.70;;;;;;4971905;28;20042;-88
2021/06/14 10:15:00;;;;;;;9.50;5.15;;;26.60;49.50;;;;;;4972061;28;20487;-88
2021/06/14 10:17:31;;;;;;;6.95;3.95;;;26.70;49.00;;;;;;4969198;28;20548;-88
2021/06/14 10:20:07;;;;;;;7.60;4.60;;;26.80;49.20;;;;;;4956366;28;20168;-88
2021/06/14 10:22:33;;;;;;;8.30;4.25;;;26.80;48.00;;;;;;4965535;28;20023;-88
2021/06/14 10:24:59;;;;;;;10.05;4.63;;;26.90;47.10;;;;;;4973123;28;20079;-88
2021/06/14 10:27:25;;;;;;;6.07;4.00;;;26.90;47.10;;;;;;4951437;28;20062;-88
2021/06/14 10:29:50;;;;;;;7.82;3.60;;;27.00;48.00;;;;;;5023419;28;20066;-88
2021/06/14 10:32:16;;;;;;;6.35;3.95;;;27.10;48.10;;;;;;5006500;28;20411;-88
2021/06/14 10:34:43;;;;;;;8.38;4.50;;;27.20;47.30;;;;;;4955888;28;20361;-88
2021/06/14 10:37:09;;;;;;;8.50;4.43;;;27.20;46.90;;;;;;4955984;28;20055;-88
2021/06/14 10:39:35;;;;;;;7.18;4.07;;;27.30;46.70;;;;;;4955811;28;20492;-88
2021/06/14 10:42:01;;;;;;;7.32;3.90;;;27.40;48.20;;;;;;4955877;28;20129;-88
2021/06/14 10:44:27;;;;;;;7.00;3.47;;;27.40;48.00;;;;;;4971542;28;20113;-88
2021/06/14 10:46:53;;;;;;;6.70;3.40;;;27.50;47.50;;;;;;4939057;28;20384;-88
2021/06/14 10:49:19;;;;;;;8.05;3.75;;;27.50;47.80;;;;;;4955555;28;20037;-88
2021/06/14 10:51:55;;;;;;;7.00;4.05;;;27.70;48.30;;;;;;5019496;28;20468;-88
2021/06/14 10:54:21;;;;;;;6.88;4.00;;;27.70;47.20;;;;;;4963323;28;20599;-88
2021/06/14 10:56:46;;;;;;;8.60;4.38;;;27.80;46.90;;;;;;4973280;28;20031;-88
2021/06/14 10:59:14;;;;;;;6.35;3.42;;;27.90;46.90;;;;;;4955718;28;20029;-88
2021/06/14 11:01:46;;;;;;;6.13;3.47;;;27.90;46.60;;;;;;4955539;28;20045;-88
2021/06/14 11:04:26;;;;;;;6.13;3.60;;;28.00;46.90;;;;;;4971777;28;20033;-88
2021/06/14 11:06:53;;;;;;;;;;;28.10;47.70;;;;;;4959644;28;20029;-88
2021/06/14 11:09:19;;;;;;;9.30;3.97;;;28.10;47.50;;;;;;4974585;28;19918;-88
2021/06/14 11:11:52;;;;;;;5.82;3.58;;;28.20;46.60;;;;;;4955560;28;20019;-88
2021/06/14 11:14:36;;;;;;;6.25;3.30;;;28.20;46.90;;;;;;4971410;28;20023;-88
2021/06/14 11:17:23;;;;;;;10.80;4.05;;;28.30;48.00;;;;;;4971328;28;20028;-88
2021/06/14 11:20:10;;;;;;;7.03;3.40;;;28.30;47.00;;;;;;4939193;28;20026;-88
2021/06/14 11:22:48;;;;;;;6.07;3.75;;;28.40;47.40;;;;;;4989308;28;20031;-88
2021/06/14 11:25:17;;;;;;;6.10;3.30;;;28.50;46.60;;;;;;4977135;28;20042;-88
2021/06/14 11:27:43;;;;;;;8.65;4.38;;;28.50;45.60;;;;;;4971332;28;20451;-88
2021/06/14 11:30:15;;;;;;;8.77;4.57;;;28.50;45.80;;;;;;4967458;28;20055;-88
2021/06/14 11:32:41;;;;;;;6.13;3.42;;;28.50;44.20;;;;;;4967870;28;20041;-88
2021/06/14 11:35:08;;;;;;;8.82;4.10;;;28.50;45.40;;;;;;4951689;28;20027;-88
2021/06/14 11:37:42;;;;;;;6.40;3.47;;;28.50;46.90;;;;;;4951906;29;20027;-88
2021/06/14 11:40:10;;;;;;;6.00;3.15;;;28.70;47.70;;;;;;4962522;28;20027;-88
2021/06/14 11:42:49;;;;;;;6.00;3.15;;;28.70;47.10;;;;;;4951586;28;20054;-88
2021/06/14 11:45:27;;;;;;;6.93;3.55;;;28.80;47.80;;;;;;4967686;28;20134;-88
2021/06/14 11:47:53;;;;;;;7.10;3.42;;;28.90;48.40;;;;;;4951695;29;20028;-89
2021/06/14 11:50:27;;;;;;;6.88;3.80;;;29.00;47.90;;;;;;4951721;28;20027;-89
2021/06/14 11:53:05;;;;;;;6.88;3.85;;;29.10;47.10;;;;;;4967516;28;20024;-88
2021/06/14 11:55:35;;;;;;;6.60;3.42;;;29.20;47.40;;;;;;4966209;28;20464;-89
2021/06/14 11:58:05;;;;;;;8.40;4.28;;;29.20;47.80;;;;;;4939448;28;20022;-88
2021/06/14 12:00:38;;;;;;;6.68;3.83;;;29.30;47.70;;;;;;5006012;28;20039;-88
2021/06/14 12:03:16;;;;;;;6.28;3.38;;;29.40;48.20;;;;;;4947378;28;20110;-88
2021/06/14 12:05:41;;;;;;;6.28;3.45;;;29.50;48.40;;;;;;4952141;29;20036;-88
2021/06/14 12:08:09;;;;;;;6.30;3.40;;;29.50;47.90;;;;;;4951102;28;20035;-87
2021/06/14 12:10:36;;;;;;;8.30;3.60;;;29.50;48.20;;;;;;4950695;28;20031;-87
2021/06/14 12:13:10;;;;;;;5.35;3.10;;;29.60;48.30;;;;;;4952086;28;20422;-87
2021/06/14 12:15:38;;;;;;;7.75;3.83;;;29.70;47.90;;;;;;4951781;28;20025;-87
2021/06/14 12:18:04;;;;;;;5.28;3.17;;;29.70;45.80;;;;;;4938985;28;20388;-87
2021/06/14 12:20:36;;;;;;;6.75;3.28;;;29.70;46.30;;;;;;5006223;28;20036;-87
2021/06/14 12:23:08;;;;;;;5.20;3.60;;;29.80;47.00;;;;;;4971590;28;20366;-88
2021/06/14 12:25:36;;;;;;;7.68;3.75;;;29.80;46.40;;;;;;4984219;28;20023;-88
2021/06/14 12:28:07;;;;;;;5.13;3.05;;;29.80;45.70;;;;;;4966469;28;20023;-87
2021/06/14 12:30:33;;;;;;;5.47;3.47;;;29.80;46.80;;;;;;5031038;28;20395;-88
2021/06/14 12:32:59;;;;;;;6.32;3.30;;;29.80;46.90;;;;;;5030964;28;20013;-87
2021/06/14 12:35:26;;;;;;;7.50;3.08;;;29.90;45.60;;;;;;5047314;28;20467;-87
2021/06/14 12:37:53;;;;;;;6.85;3.20;;;29.90;45.60;;;;;;5047542;28;20387;-87
2021/06/14 12:40:22;;;;;;;6.68;3.17;;;29.90;45.30;;;;;;5031178;28;20159;-88
2021/06/14 12:42:55;;;;;;;6.37;3.27;;;29.90;46.00;;;;;;5032310;28;20026;-88
2021/06/14 12:45:21;;;;;;;5.20;2.83;;;29.90;45.40;;;;;;5031208;28;20029;-87
2021/06/14 12:47:58;;;;;;;4.28;2.63;;;30.00;46.10;;;;;;5030978;28;20513;-88
2021/06/14 12:50:37;;;;;;;6.97;3.33;;;30.00;45.60;;;;;;5035008;28;20025;-88
2021/06/14 12:53:05;;;;;;;5.18;3.03;;;30.00;46.00;;;;;;5030997;28;20517;-88
2021/06/14 12:55:33;;;;;;;6.00;2.92;;;30.10;45.20;;;;;;5031061;28;20383;-88
2021/06/14 12:58:13;;;;;;;5.55;2.70;;;30.10;46.20;;;;;;5032065;28;20471;-87
2021/06/14 13:00:41;;;;;;;6.18;3.33;;;30.20;46.10;;;;;;5023123;28;20392;-88
2021/06/14 13:03:07;;;;;;;5.50;2.70;;;30.30;45.80;;;;;;5030853;28;20029;-88
2021/06/14 13:05:35;;;;;;;5.00;3.00;;;30.30;46.10;;;;;;5013871;28;20109;-88
2021/06/14 13:08:11;;;;;;;6.45;3.10;;;30.40;46.80;;;;;;5024635;28;20033;-88
2021/06/14 13:10:41;;;;;;;4.15;2.80;;;30.50;47.10;;;;;;5050044;28;20028;-88